Time;durP1;ratioP1;P1;durP2;ratioP2;P2;SDS_P1;SDS_P2;PMS_P1;PMS_P2;Temp;Humidity;BMP_temperature;BMP_pressure;BME280_temperature;BME280_humidity;BME280_pressure;Samples;Min_cycle;Max_cycle;Signal;HPM_P1;HPM_P2
2021/05/18 00:00:04;;;;;;;17.77;5.70;;;;;;;;;;4941008;29;20226;-75
2021/05/18 00:02:31;;;;;;;14.33;4.87;;;;;;;;;;4953389;29;20210;-75
2021/05/18 00:04:58;;;;;;;20.27;5.30;;;;;;;;;;4955287;29;20792;-75
2021/05/18 00:07:25;;;;;;;18.57;5.27;;;;;;;;;;4939816;29;20707;-75
2021/05/18 00:12:39;;;;;;;16.07;5.03;;;;;;;;;;4935977;29;20205;-75
2021/05/18 00:15:07;;;;;;;17.03;4.87;;;;;;;;;;4944063;29;20214;-75
2021/05/18 00:17:34;;;;;;;15.93;5.23;;;;;;;;;;4940276;29;20210;-75
2021/05/18 00:20:01;;;;;;;16.17;4.70;;;;;;;;;;4954305;29;20560;-75
2021/05/18 00:22:28;;;;;;;17.23;4.80;;;;;;;;;;4941770;29;20297;-75
2021/05/18 00:24:55;;;;;;;14.20;4.30;;;;;;;;;;4935794;29;20423;-75
2021/05/18 00:27:23;;;;;;;11.80;3.90;;;;;;;;;;4945300;28;20702;-75
2021/05/18 00:29:50;;;;;;;17.57;4.57;;;;;;;;;;4937490;29;20213;-75
2021/05/18 00:32:16;;;;;;;21.90;4.30;;;;;;;;;;4947254;29;20233;-74
2021/05/18 00:34:43;;;;;;;15.07;3.83;;;;;;;;;;4955000;29;20632;-75
2021/05/18 00:37:10;;;;;;;15.10;3.67;;;;;;;;;;4942745;29;20286;-75
2021/05/18 00:39:37;;;;;;;18.70;4.37;;;;;;;;;;4940978;29;20258;-75
2021/05/18 00:42:13;;;;;;;16.67;4.67;;;;;;;;;;4949981;29;20786;-74
2021/05/18 00:44:40;;;;;;;15.03;3.77;;;;;;;;;;4935619;29;20713;-74
2021/05/18 00:47:07;;;;;;;16.60;3.83;;;;;;;;;;4937150;29;20288;-74
2021/05/18 00:49:34;;;;;;;17.10;3.90;;;;;;;;;;4938158;29;20245;-74
2021/05/18 00:52:00;;;;;;;14.03;3.53;;;;;;;;;;4944238;29;20244;-74
2021/05/18 00:54:34;;;;;;;17.97;4.10;;;;;;;;;;4953647;29;20734;-75
2021/05/18 00:59:48;;;;;;;15.73;3.90;;;;;;;;;;4939805;29;20677;-74
2021/05/18 01:02:14;;;;;;;15.47;3.43;;;;;;;;;;4953141;29;20216;-74
2021/05/18 01:04:43;;;;;;;15.20;4.00;;;;;;;;;;4946210;29;20695;-74
2021/05/18 01:07:09;;;;;;;13.80;3.40;;;;;;;;;;4936952;29;20209;-75
2021/05/18 01:09:36;;;;;;;11.17;3.10;;;;;;;;;;4953824;28;20198;-74
2021/05/18 01:12:04;;;;;;;12.87;3.20;;;;;;;;;;4951353;28;20619;-75
2021/05/18 01:14:30;;;;;;;13.80;3.50;;;;;;;;;;4934322;29;20387;-74
2021/05/18 01:16:58;;;;;;;12.50;3.17;;;;;;;;;;4934627;29;20210;-74
2021/05/18 01:19:25;;;;;;;17.10;3.43;;;;;;;;;;4934113;29;20233;-74
2021/05/18 01:21:54;;;;;;;12.73;3.33;;;;;;;;;;4934491;29;20723;-74
2021/05/18 01:24:21;;;;;;;16.97;3.43;;;;;;;;;;4946210;29;20277;-74
2021/05/18 01:26:48;;;;;;;19.77;3.77;;;;;;;;;;4953307;29;20242;-74
2021/05/18 01:29:15;;;;;;;11.03;3.27;;;;;;;;;;4946319;29;20246;-74
2021/05/18 01:31:49;;;;;;;10.00;3.40;;;;;;;;;;4953330;29;20261;-74
2021/05/18 01:34:16;;;;;;;14.07;3.90;;;;;;;;;;4948327;29;20215;-74
2021/05/18 01:36:43;;;;;;;14.30;3.53;;;;;;;;;;4934320;29;20205;-74
2021/05/18 01:39:29;;;;;;;13.40;3.77;;;;;;;;;;4934302;29;20228;-74
2021/05/18 01:44:40;;;;;;;11.23;3.50;;;;;;;;;;4938946;29;20215;-74
2021/05/18 01:47:09;;;;;;;14.13;3.73;;;;;;;;;;4941153;29;20315;-75
2021/05/18 01:49:36;;;;;;;15.60;3.33;;;;;;;;;;4933824;29;20210;-75
2021/05/18 01:52:04;;;;;;;18.33;3.77;;;;;;;;;;4941949;29;20208;-75
2021/05/18 01:54:33;;;;;;;16.07;3.80;;;;;;;;;;4952747;29;20209;-75
2021/05/18 01:57:17;;;;;;;12.20;3.77;;;;;;;;;;4946229;28;20212;-75
2021/05/18 01:59:44;;;;;;;19.43;3.80;;;;;;;;;;4944741;29;20244;-75
2021/05/18 02:02:11;;;;;;;19.67;3.93;;;;;;;;;;4934146;29;20624;-75
2021/05/18 02:04:39;;;;;;;15.80;4.13;;;;;;;;;;4936815;29;20205;-75
2021/05/18 02:07:07;;;;;;;16.60;4.00;;;;;;;;;;4953398;29;20265;-74
2021/05/18 02:09:35;;;;;;;15.20;3.47;;;;;;;;;;4951422;29;20202;-74
2021/05/18 02:12:01;;;;;;;12.07;3.53;;;;;;;;;;4953249;29;20233;-74
2021/05/18 02:14:29;;;;;;;13.83;3.47;;;;;;;;;;4953004;28;20235;-74
2021/05/18 02:17:01;;;;;;;11.20;3.30;;;;;;;;;;4946763;29;20208;-74
2021/05/18 02:19:39;;;;;;;11.20;3.60;;;;;;;;;;4940737;29;20231;-74
2021/05/18 02:24:35;;;;;;;12.03;3.50;;;;;;;;;;4951485;29;20657;-74
2021/05/18 02:25:08;;;;;;;12.60;3.53;;;;;;;;;;4952611;29;20613;-75
2021/05/18 02:27:35;;;;;;;7.97;3.70;;;;;;;;;;4951072;29;20742;-74
2021/05/18 02:30:02;;;;;;;13.33;3.87;;;;;;;;;;4951281;29;20299;-74
2021/05/18 02:32:29;;;;;;;16.53;3.93;;;;;;;;;;4946840;29;20680;-74
2021/05/18 02:34:56;;;;;;;20.33;3.73;;;;;;;;;;4952743;28;20210;-74
2021/05/18 02:37:23;;;;;;;12.33;3.40;;;;;;;;;;4943896;29;20234;-74
2021/05/18 02:39:49;;;;;;;13.50;3.50;;;;;;;;;;4933412;29;20341;-74
2021/05/18 02:42:17;;;;;;;17.17;4.00;;;;;;;;;;4946494;29;20258;-74
2021/05/18 02:44:46;;;;;;;12.63;3.60;;;;;;;;;;4952468;29;20207;-74
2021/05/18 02:49:59;;;;;;;14.87;3.63;;;;;;;;;;4933800;29;20201;-74
2021/05/18 02:52:27;;;;;;;12.97;3.40;;;;;;;;;;4936998;29;20214;-74
2021/05/18 02:54:56;;;;;;;13.43;3.63;;;;;;;;;;4937369;29;20204;-74
2021/05/18 02:57:32;;;;;;;12.27;3.80;;;;;;;;;;4943930;29;20667;-74
2021/05/18 02:59:59;;;;;;;13.03;3.80;;;;;;;;;;4944967;29;20325;-74
2021/05/18 03:02:26;;;;;;;12.63;3.93;;;;;;;;;;4947147;29;20301;-74
2021/05/18 03:04:53;;;;;;;16.57;3.87;;;;;;;;;;4956295;29;20294;-74
2021/05/18 03:07:19;;;;;;;14.60;4.23;;;;;;;;;;4956162;29;20559;-74
2021/05/18 03:09:46;;;;;;;18.93;4.53;;;;;;;;;;4949502;29;20295;-74
2021/05/18 03:12:13;;;;;;;15.50;4.10;;;;;;;;;;4948082;29;20294;-75
2021/05/18 03:14:40;;;;;;;21.87;5.50;;;;;;;;;;4939607;29;20758;-74
2021/05/18 03:17:07;;;;;;;17.87;5.30;;;;;;;;;;4942693;29;20294;-74
2021/05/18 03:19:34;;;;;;;14.67;5.93;;;;;;;;;;4952674;29;20293;-74
2021/05/18 03:22:00;;;;;;;16.73;5.60;;;;;;;;;;4948790;29;20286;-74
2021/05/18 03:24:27;;;;;;;15.37;5.33;;;;;;;;;;4951631;29;20247;-74
2021/05/18 03:26:54;;;;;;;13.17;5.60;;;;;;;;;;4955612;29;20330;-74
2021/05/18 03:29:22;;;;;;;15.77;5.53;;;;;;;;;;4943302;29;20731;-74
2021/05/18 03:34:35;;;;;;;16.53;5.27;;;;;;;;;;4955717;29;20209;-74
2021/05/18 03:37:06;;;;;;;16.80;5.20;;;;;;;;;;4944786;29;20233;-74
2021/05/18 03:39:33;;;;;;;13.53;5.03;;;;;;;;;;4936421;29;20228;-74
2021/05/18 03:42:06;;;;;;;20.53;4.97;;;;;;;;;;4947664;29;20208;-74
2021/05/18 03:52:52;;;;;;;13.47;4.53;;;;;;;;;;4951374;29;20573;-74
2021/05/18 04:03:41;;;;;;;15.53;4.90;;;;;;;;;;4955130;29;20323;-74
2021/05/18 04:12:04;;;;;;;17.80;5.33;;;;;;;;;;4954624;29;20219;-74
2021/05/18 04:17:16;;;;;;;15.20;6.13;;;;;;;;;;4952012;29;20209;-74
2021/05/18 04:19:48;;;;;;;13.93;5.70;;;;;;;;;;4953704;29;20641;-74
2021/05/18 04:22:32;;;;;;;15.13;5.90;;;;;;;;;;4954820;29;20293;-74
2021/05/18 04:38:58;;;;;;;15.83;6.77;;;7.90;99.90;;;;;;4935390;29;20221;-74
2021/05/18 04:52:33;;;;;;;16.43;6.87;;;8.00;99.90;;;;;;4915067;29;20212;-74
2021/05/18 05:00:47;;;;;;;17.67;5.77;;;8.00;99.90;;;;;;4950259;29;20903;-74
2021/05/18 05:03:40;;;;;;;16.57;6.57;;;8.00;99.90;;;;;;4948505;29;20267;-74
2021/05/18 05:06:19;;;;;;;14.10;5.93;;;8.00;99.90;;;;;;4953925;29;20262;-74
2021/05/18 05:08:51;;;;;;;13.40;5.87;;;8.00;99.90;;;;;;4954411;29;20255;-74
2021/05/18 05:14:18;;;;;;;15.03;6.40;;;;;;;;;;4953163;28;20204;-75
2021/05/18 05:16:44;;;;;;;13.77;6.50;;;8.00;99.90;;;;;;4938372;29;20205;-74
2021/05/18 05:19:11;;;;;;;14.77;6.17;;;;;;;;;;4951121;29;20238;-75
2021/05/18 05:21:39;;;;;;;13.63;6.67;;;;;;;;;;4953330;29;20292;-74
2021/05/18 05:24:08;;;;;;;14.43;6.00;;;;;;;;;;4949293;29;20204;-74
2021/05/18 05:26:35;;;;;;;14.97;6.27;;;;;;;;;;4936211;29;20250;-74
2021/05/18 05:29:02;;;;;;;12.97;7.23;;;;;;;;;;4935371;29;20320;-75
2021/05/18 05:31:29;;;;;;;15.10;6.43;;;;;;;;;;4934740;29;20300;-75
2021/05/18 05:33:56;;;;;;;18.47;8.77;;;;;;;;;;4947247;29;20213;-74
2021/05/18 05:36:23;;;;;;;22.00;8.13;;;;;;;;;;4952972;29;20278;-75
2021/05/18 05:38:50;;;;;;;18.27;7.07;;;;;;;;;;4946814;29;20322;-74
2021/05/18 05:41:19;;;;;;;16.43;6.33;;;;;;;;;;4941915;29;20230;-74
2021/05/18 05:43:46;;;;;;;17.10;6.50;;;;;;;;;;4941979;29;20203;-75
2021/05/18 05:46:13;;;;;;;16.57;6.20;;;;;;;;;;4943989;29;20285;-74
2021/05/18 05:48:40;;;;;;;12.20;5.90;;;;;;;;;;4947215;29;20286;-75
2021/05/18 05:51:06;;;;;;;17.40;5.70;;;9.20;99.90;;;;;;4938947;29;20284;-74
2021/05/18 05:53:32;;;;;;;14.43;5.17;;;9.20;99.90;;;;;;4945033;29;20302;-72
2021/05/18 05:55:59;;;;;;;12.60;4.90;;;;;;;;;;4944783;29;20292;-75
2021/05/18 05:58:28;;;;;;;14.73;5.63;;;;;;;;;;4947489;28;20348;-75
2021/05/18 06:00:56;;;;;;;14.97;5.30;;;;;;;;;;4944689;29;20241;-74
2021/05/18 06:03:24;;;;;;;11.70;5.03;;;;;;;;;;4952325;28;20203;-74
2021/05/18 06:05:52;;;;;;;13.87;5.17;;;;;;;;;;4945133;29;20315;-75
2021/05/18 06:08:20;;;;;;;13.97;4.57;;;;;;;;;;4950125;29;20346;-74
2021/05/18 06:10:51;;;;;;;15.70;4.70;;;;;;;;;;4949845;29;20691;-74
2021/05/18 06:13:41;;;;;;;14.27;5.10;;;;;;;;;;4946926;28;20594;-74
2021/05/18 06:36:53;;;;;;;10.17;4.53;;;;;;;;;;4909117;29;20662;-74
2021/05/18 06:47:08;;;;;;;10.23;3.57;;;;;;;;;;4876389;29;20355;-75
2021/05/18 06:49:38;;;;;;;13.93;4.23;;;;;;;;;;4877077;29;20294;-75
2021/05/18 06:52:06;;;;;;;15.87;4.43;;;;;;;;;;4876689;29;20297;-75
2021/05/18 06:54:32;;;;;;;14.37;4.20;;;;;;;;;;4877261;29;20205;-75
2021/05/18 06:57:02;;;;;;;14.53;4.40;;;;;;;;;;4878170;29;20217;-75
2021/05/18 07:02:22;;;;;;;11.00;3.73;;;;;;;;;;4865788;29;20213;-75
2021/05/18 07:04:53;;;;;;;13.83;3.93;;;;;;;;;;4873722;29;20683;-75
2021/05/18 07:07:21;;;;;;;13.77;3.50;;;;;;;;;;4874956;29;20214;-76
2021/05/18 07:09:48;;;;;;;12.03;3.07;;;;;;;;;;4876634;29;20201;-75
2021/05/18 07:12:15;;;;;;;9.67;3.90;;;;;;;;;;4901574;29;20199;-76
2021/05/18 07:14:41;;;;;;;11.67;3.13;;;;;;;;;;4942518;29;20314;-76
2021/05/18 07:17:08;;;;;;;14.67;3.03;;;;;;;;;;4945654;29;20239;-76
2021/05/18 07:19:35;;;;;;;10.57;3.00;;;;;;;;;;4947200;29;20629;-76
2021/05/18 07:22:03;;;;;;;13.73;2.93;;;;;;;;;;4947379;29;20234;-76
2021/05/18 07:24:30;;;;;;;12.50;3.00;;;;;;;;;;4947459;28;20262;-75
2021/05/18 07:26:57;;;;;;;12.13;3.00;;;;;;;;;;4947347;29;21691;-76
2021/05/18 07:29:24;;;;;;;10.50;2.90;;;;;;;;;;4946896;29;20204;-76
2021/05/18 07:31:51;;;;;;;11.27;3.00;;;;;;;;;;4946708;29;20258;-75
2021/05/18 07:34:18;;;;;;;11.30;3.20;;;;;;;;;;4949735;29;20699;-76
2021/05/18 07:36:44;;;;;;;13.27;2.90;;;;;;;;;;4949473;28;20262;-75
2021/05/18 07:39:12;;;;;;;9.53;3.33;;;;;;;;;;4945514;29;20258;-76
2021/05/18 07:41:40;;;;;;;14.47;3.10;;;;;;;;;;4947018;29;20227;-76
2021/05/18 07:44:06;;;;;;;9.20;2.67;;;;;;;;;;4942570;29;20259;-76
2021/05/18 07:46:33;;;;;;;8.83;2.70;;;;;;;;;;4947795;29;20207;-75
2021/05/18 07:49:15;;;;;;;10.10;3.07;;;;;;;;;;4945009;29;20250;-76
2021/05/18 08:00:19;;;;;;;12.57;3.20;;;;;;;;;;4924652;29;20232;-76
2021/05/18 08:05:32;;;;;;;8.77;2.87;;;;;;;;;;4925506;29;20210;-76
2021/05/18 08:07:59;;;;;;;11.33;2.80;;;;;;;;;;4924280;29;20731;-76
2021/05/18 08:10:39;;;;;;;10.50;2.63;;;;;;;;;;4921886;29;20220;-76
2021/05/18 08:13:06;;;;;;;11.70;2.80;;;;;;;;;;4915703;29;20657;-76
2021/05/18 08:15:41;;;;;;;10.13;2.50;;;;;;;;;;4928104;29;20200;-76
2021/05/18 08:18:13;;;;;;;10.30;2.60;;;;;;;;;;4924120;29;20208;-76
2021/05/18 08:21:14;;;;;;;10.10;2.53;;;;;;;;;;4920138;29;20638;-76
2021/05/18 10:35:04;;;;;;;4.05;1.58;;;;;;;;;;4834923;29;20310;-75
2021/05/18 10:37:45;;;;;;;7.38;1.33;;;;;;;;;;4826540;29;20294;-74
2021/05/18 10:40:31;;;;;;;5.13;1.38;;;;;;;;;;4825684;29;20638;-75
2021/05/18 10:43:11;;;;;;;4.03;1.10;;;;;;;;;;4845004;29;20213;-75
2021/05/18 10:45:58;;;;;;;5.72;1.38;;;;;;;;;;4887999;29;20221;-75
2021/05/18 10:48:25;;;;;;;3.78;1.33;;;;;;;;;;4881801;29;20197;-75
2021/05/18 10:50:52;;;;;;;5.25;1.27;;;;;;;;;;4883142;29;20228;-75
2021/05/18 10:53:22;;;;;;;4.47;1.42;;;;;;;;;;4885056;29;20383;-75
2021/05/18 10:56:05;;;;;;;3.65;1.13;;;;;;;;;;4926769;29;20298;-75
2021/05/18 10:58:32;;;;;;;5.35;1.10;;;;;;;;;;4939526;29;20271;-74
2021/05/18 11:00:59;;;;;;;4.57;1.45;;;;;;;;;;4934831;29;20223;-75
2021/05/18 11:03:25;;;;;;;4.03;1.30;;;;;;;;;;4952743;28;20539;-75
2021/05/18 11:05:52;;;;;;;4.25;1.17;;;;;;;;;;4946148;29;20203;-75
2021/05/18 11:08:19;;;;;;;3.80;1.20;;;;;;;;;;4941580;29;20759;-74
2021/05/18 11:10:47;;;;;;;3.42;1.17;;;;;;;;;;4942856;29;20291;-75
2021/05/18 11:13:14;;;;;;;4.57;1.30;;;;;;;;;;4946327;28;20294;-75
2021/05/18 11:15:41;;;;;;;3.70;1.15;;;;;;;;;;4947370;29;20199;-75
2021/05/18 11:18:08;;;;;;;4.13;1.13;;;;;;;;;;4938838;28;20661;-75
2021/05/18 11:20:47;;;;;;;3.33;1.42;;;;;;;;;;4942321;29;20318;-74
2021/05/18 11:23:23;;;;;;;5.88;1.45;;;;;;;;;;4936029;29;20689;-75
2021/05/18 11:25:53;;;;;;;4.53;1.40;;;;;;;;;;4946367;29;20215;-76
2021/05/18 11:28:22;;;;;;;3.08;1.15;;;;;;;;;;4954532;28;20230;-75
2021/05/18 11:30:51;;;;;;;3.63;1.10;;;;;;;;;;4948397;29;20200;-76
2021/05/18 11:33:19;;;;;;;4.57;1.27;;;;;;;;;;4940178;29;20230;-75
2021/05/18 11:35:59;;;;;;;3.70;1.10;;;;;;;;;;4946380;29;20681;-75
2021/05/18 11:38:29;;;;;;;3.10;0.90;;;;;;;;;;4946368;29;20686;-76
2021/05/18 11:40:56;;;;;;;4.20;1.20;;;;;;;;;;4943893;29;20223;-76
2021/05/18 11:43:24;;;;;;;4.53;1.13;;;;;;;;;;4950491;29;20290;-75
2021/05/18 11:45:52;;;;;;;1.98;0.80;;;;;;;;;;4943921;29;20283;-75
2021/05/18 11:48:21;;;;;;;3.53;0.95;;;;;;;;;;4949416;29;20289;-75
2021/05/18 11:51:00;;;;;;;3.95;0.95;;;;;;;;;;4948547;28;20200;-75
2021/05/18 11:53:27;;;;;;;6.72;1.92;;;;;;;;;;4947996;29;20309;-75
2021/05/18 11:55:55;;;;;;;3.08;1.20;;;;;;;;;;4948592;29;20680;-75
2021/05/18 11:58:21;;;;;;;3.85;1.38;;;;;;;;;;4947342;29;20235;-76
2021/05/18 12:00:49;;;;;;;4.80;1.00;;;;;;;;;;4945655;29;20759;-75
2021/05/18 12:03:16;;;;;;;1.60;0.80;;;;;;;;;;4946374;28;20231;-75
2021/05/18 12:05:53;;;;;;;2.85;0.85;;;;;;;;;;4948357;29;20215;-75
2021/05/18 12:08:26;;;;;;;1.88;0.88;;;;;;;;;;4945086;29;20665;-75
2021/05/18 12:10:53;;;;;;;4.07;0.80;;;;;;;;;;4946123;29;20275;-75
2021/05/18 12:13:31;;;;;;;2.65;0.80;;;;;;;;;;4944563;29;20200;-76
2021/05/18 12:16:03;;;;;;;1.35;0.60;;;;;;;;;;4947633;29;20806;-75
2021/05/18 12:18:30;;;;;;;3.25;0.90;;;;;;;;;;4943358;29;20295;-75
2021/05/18 12:21:01;;;;;;;2.15;0.70;;;;;;;;;;4946446;29;20255;-76
2021/05/18 12:23:27;;;;;;;3.83;1.00;;;;;;;;;;4945156;28;20210;-75
2021/05/18 12:26:08;;;;;;;1.85;0.80;;;;;;;;;;4945091;29;20323;-75
2021/05/18 12:28:35;;;;;;;1.92;0.77;;;;;;;;;;4943949;29;20381;-75
2021/05/18 12:31:03;;;;;;;1.63;0.77;;;;;;;;;;4946421;29;20258;-75
2021/05/18 12:33:36;;;;;;;2.55;0.73;;;;;;;;;;4944158;29;20678;-75
2021/05/18 12:36:07;;;;;;;1.33;0.70;;;;;;;;;;4946246;28;20223;-76
2021/05/18 12:38:34;;;;;;;2.85;0.80;;;;;;;;;;4945421;29;20291;-75
2021/05/18 12:41:05;;;;;;;3.22;1.13;;;;;;;;;;4944916;29;20223;-76
2021/05/18 12:43:41;;;;;;;2.90;1.08;;;;;;;;;;4949637;29;20215;-75
2021/05/18 12:46:10;;;;;;;3.80;1.40;;;;;;;;;;4947171;29;20218;-75
2021/05/18 12:48:37;;;;;;;3.55;1.20;;;;;;;;;;4940546;29;20207;-75
2021/05/18 12:51:16;;;;;;;3.72;1.20;;;;;;;;;;4939520;29;20287;-75
2021/05/18 12:53:42;;;;;;;3.08;1.00;;;;;;;;;;4943548;29;20200;-75
2021/05/18 12:56:12;;;;;;;1.95;0.90;;;;;;;;;;4946501;29;20298;-75
2021/05/18 12:58:39;;;;;;;2.50;0.90;;;;;;;;;;4945410;29;20195;-76
2021/05/18 13:01:07;;;;;;;3.38;1.08;;;;;;;;;;4943200;28;20219;-75
2021/05/18 13:03:34;;;;;;;4.45;1.10;;;;;;;;;;4946098;29;20659;-75
2021/05/18 13:06:01;;;;;;;2.83;1.10;;;;;;;;;;4945970;29;20293;-75
2021/05/18 13:08:31;;;;;;;4.90;1.25;;;;;;;;;;4942841;29;20239;-75
2021/05/18 13:11:11;;;;;;;3.45;0.95;;;;;;;;;;4939899;29;20203;-75
2021/05/18 13:13:45;;;;;;;2.53;1.15;;;;;;;;;;4940733;29;20241;-75
2021/05/18 13:16:14;;;;;;;3.95;1.00;;;;;;;;;;4943022;29;20210;-75
2021/05/18 13:18:51;;;;;;;2.17;0.80;;;;;;;;;;4941004;29;20286;-75
2021/05/18 13:21:19;;;;;;;2.83;1.05;;;;;;;;;;4944628;29;20326;-75
2021/05/18 13:23:58;;;;;;;4.03;1.40;;;;;;;;;;4939947;29;20238;-75
2021/05/18 13:26:26;;;;;;;4.40;1.15;;;;;;;;;;4949782;29;20701;-75
2021/05/18 13:28:57;;;;;;;3.08;1.10;;;;;;;;;;4946446;29;20219;-75
2021/05/18 13:31:24;;;;;;;4.47;1.13;;;;;;;;;;4946063;29;20298;-76
2021/05/18 13:33:52;;;;;;;4.30;1.17;;;;;;;;;;4941330;29;20294;-75
2021/05/18 13:36:18;;;;;;;3.92;1.13;;;;;;;;;;4941140;28;20299;-75
2021/05/18 13:38:45;;;;;;;3.67;1.13;;;;;;;;;;4945150;29;20695;-75
2021/05/18 13:41:12;;;;;;;3.92;1.35;;;;;;;;;;4943057;29;20318;-75
2021/05/18 13:43:38;;;;;;;3.92;1.30;;;;;;;;;;4944900;29;20203;-75
2021/05/18 13:46:08;;;;;;;4.57;1.25;;;;;;;;;;4942054;29;20199;-75
2021/05/18 13:48:34;;;;;;;3.55;1.20;;;;;;;;;;4933850;29;20342;-75
2021/05/18 13:51:02;;;;;;;3.35;1.08;;;;;;;;;;4945803;29;20216;-75
2021/05/18 13:53:28;;;;;;;4.63;1.13;;;;;;;;;;4942937;29;20211;-75
2021/05/18 13:55:55;;;;;;;2.90;1.13;;;;;;;;;;4942541;29;20298;-75
2021/05/18 13:58:22;;;;;;;3.60;1.35;;;;;;;;;;4941986;29;20295;-76
2021/05/18 14:00:48;;;;;;;3.22;1.17;;;;;;;;;;4945475;29;20589;-75
2021/05/18 14:03:15;;;;;;;2.88;1.10;;;;;;;;;;4944175;29;20612;-75
2021/05/18 14:05:42;;;;;;;4.63;1.20;;;;;;;;;;4944982;29;20241;-77
2021/05/18 14:11:07;;;;;;;5.00;1.17;;;;;;;;;;4943567;29;20203;-75
2021/05/18 14:13:34;;;;;;;3.17;0.90;;;;;;;;;;4946297;29;20253;-75
2021/05/18 14:16:01;;;;;;;3.67;0.90;;;;;;;;;;4945025;29;20199;-75
2021/05/18 14:18:28;;;;;;;4.00;1.00;;;;;;;;;;4941528;29;20212;-75
2021/05/18 14:20:55;;;;;;;4.72;0.90;;;;;;;;;;4944133;29;20257;-75
2021/05/18 14:23:24;;;;;;;3.80;0.90;;;;;;;;;;4939524;29;20975;-75
2021/05/18 14:25:53;;;;;;;3.10;1.00;;;;;;;;;;4936559;29;20222;-75
2021/05/18 14:28:19;;;;;;;3.80;1.00;;;;;;;;;;4941102;29;20258;-75
2021/05/18 14:30:46;;;;;;;2.42;0.98;;;;;;;;;;4938346;29;20804;-75
2021/05/18 14:33:13;;;;;;;4.22;1.02;;;;;;;;;;4947213;29;20234;-75
2021/05/18 14:35:40;;;;;;;3.80;0.95;;;;;;;;;;4935284;28;20222;-75
2021/05/18 14:38:09;;;;;;;3.60;1.00;;;;;;;;;;4945216;28;20748;-75
2021/05/18 14:46:25;;;;;;;5.07;1.20;;;;;;;;;;4934625;29;20203;-75
2021/05/18 14:54:47;;;;;;;3.90;1.20;;;;;;;;;;4949974;29;20207;-75
2021/05/18 14:57:14;;;;;;;5.35;1.10;;;;;;;;;;4943058;29;20265;-75
2021/05/18 14:59:42;;;;;;;3.70;1.05;;;;;;;;;;4946709;29;20239;-75
2021/05/18 15:02:08;;;;;;;4.93;1.30;;;;;;;;;;4945289;29;20310;-75
2021/05/18 15:04:35;;;;;;;2.53;0.90;;;;;;;;;;4943727;29;20732;-75
2021/05/18 15:07:06;;;;;;;4.03;1.23;;;;;;;;;;4942710;29;20247;-74
2021/05/18 15:09:32;;;;;;;3.42;0.95;;;;;;;;;;4950224;28;20207;-74
2021/05/18 15:11:59;;;;;;;3.05;0.82;;;;;;;;;;4942391;29;20774;-74
2021/05/18 15:14:26;;;;;;;2.08;0.85;;;;;;;;;;4946820;29;20294;-74
2021/05/18 15:16:53;;;;;;;7.07;1.30;;;;;;;;;;4946296;29;20242;-74
2021/05/18 15:19:22;;;;;;;3.88;1.38;;;;;;;;;;4945749;29;20236;-74
2021/05/18 15:21:49;;;;;;;3.72;1.20;;;;;;;;;;4944057;29;20342;-74
2021/05/18 15:24:17;;;;;;;3.78;1.00;;;;;;;;;;4945528;29;20235;-74
2021/05/18 15:26:43;;;;;;;3.45;0.93;;;;;;;;;;4947822;28;20760;-74
2021/05/18 15:29:10;;;;;;;3.63;1.15;;;;;;;;;;4947002;28;20207;-74
2021/05/18 15:31:37;;;;;;;2.97;0.90;;;;;;;;;;4953083;29;20294;-74
2021/05/18 15:34:05;;;;;;;3.08;1.08;;;;;;;;;;4945187;29;20289;-74
2021/05/18 15:36:31;;;;;;;2.25;0.90;;;;;;;;;;4938815;29;20295;-74
2021/05/18 15:38:58;;;;;;;3.13;0.90;;;;;;;;;;4948863;29;20307;-74
2021/05/18 15:41:25;;;;;;;3.60;1.10;;;;;;;;;;4952091;29;20763;-74
2021/05/18 15:43:52;;;;;;;3.40;1.23;;;;;;;;;;4953723;29;20298;-74
2021/05/18 15:46:18;;;;;;;2.45;0.77;;;;;;;;;;4952521;29;20245;-75
2021/05/18 15:48:45;;;;;;;3.90;1.10;;;;;;;;;;4953479;29;20338;-75
2021/05/18 15:51:12;;;;;;;2.40;1.13;;;;;;;;;;4936271;29;21005;-74
2021/05/18 15:53:39;;;;;;;2.60;1.03;;;;;;;;;;4945960;29;20707;-74
2021/05/18 15:56:08;;;;;;;5.03;0.90;;;;;;;;;;4951641;29;20203;-74
2021/05/18 15:58:35;;;;;;;3.43;1.00;;;;;;;;;;4938298;29;20203;-75
2021/05/18 16:01:01;;;;;;;4.00;1.03;;;;;;;;;;4945264;29;20283;-75
2021/05/18 16:03:28;;;;;;;3.60;1.00;;;;;;;;;;4942537;29;20230;-75
2021/05/18 16:05:57;;;;;;;3.37;1.00;;;;;;;;;;4942054;29;20297;-74
2021/05/18 16:11:10;;;;;;;2.30;0.90;;;;;;;;;;4935662;29;20574;-74
2021/05/18 16:13:38;;;;;;;1.55;0.80;;;;;;;;;;4937874;29;20666;-74
2021/05/18 16:16:06;;;;;;;2.00;1.02;;;;;;;;;;4949919;29;20290;-75
2021/05/18 16:18:33;;;;;;;3.30;0.98;;;;;;;;;;4954399;29;20620;-75
2021/05/18 16:21:00;;;;;;;2.42;0.90;;;;;;;;;;4945709;29;20767;-75
2021/05/18 16:23:27;;;;;;;3.28;0.70;;;;;;;;;;4944604;29;20293;-77
2021/05/18 16:25:55;;;;;;;2.40;0.68;;;;;;;;;;4949359;29;20286;-78
2021/05/18 16:28:21;;;;;;;2.03;0.80;;;;;;;;;;4939384;29;20616;-76
2021/05/18 16:30:49;;;;;;;2.15;0.90;;;;;;;;;;4938788;29;20203;-76
2021/05/18 16:33:16;;;;;;;2.05;0.60;;;;;;;;;;4949071;29;20215;-76
2021/05/18 16:35:42;;;;;;;2.08;1.02;;;;;;;;;;4942047;29;20651;-76
2021/05/18 16:38:09;;;;;;;2.78;0.90;;;;;;;;;;4949288;29;20204;-77
2021/05/18 16:40:37;;;;;;;1.58;0.60;;;;;;;;;;4944058;29;20235;-77
2021/05/18 16:43:04;;;;;;;3.63;1.00;;;;;;;;;;4947723;29;20251;-76
2021/05/18 16:45:30;;;;;;;3.08;0.80;;;;;;;;;;4946410;29;20231;-76
2021/05/18 16:47:57;;;;;;;1.70;0.80;;;;;;;;;;4936930;29;20219;-75
2021/05/18 16:50:24;;;;;;;3.13;1.10;;;;;;;;;;4945173;29;20311;-75
2021/05/18 16:52:51;;;;;;;2.40;1.00;;;;;;;;;;4937599;29;20342;-75
2021/05/18 16:55:17;;;;;;;3.67;1.00;;;;;;;;;;4941858;29;20266;-76
2021/05/18 16:57:45;;;;;;;2.03;0.90;;;;;;;;;;4948494;28;20230;-76
2021/05/18 17:00:13;;;;;;;3.77;1.20;;;;;;;;;;4935046;28;20228;-75
2021/05/18 17:02:40;;;;;;;3.30;0.83;;;;;;;;;;4939447;29;20220;-76
2021/05/18 17:05:08;;;;;;;3.83;1.00;;;;;;;;;;4941516;28;20222;-77
2021/05/18 17:07:35;;;;;;;2.03;0.80;;;;;;;;;;4941182;29;20245;-78
2021/05/18 17:10:02;;;;;;;3.87;0.97;;;;;;;;;;4942183;29;20290;-79
2021/05/18 17:12:30;;;;;;;3.47;1.00;;;;;;;;;;4945023;29;20287;-78
2021/05/18 17:14:58;;;;;;;2.87;1.13;;;;;;;;;;4950185;29;20632;-77
2021/05/18 17:17:25;;;;;;;3.50;1.07;;;;;;;;;;4952320;29;20361;-77
2021/05/18 17:19:51;;;;;;;4.27;1.03;;;;;;;;;;4937879;29;20211;-75
2021/05/18 17:22:19;;;;;;;4.20;0.67;;;;;;;;;;4952593;29;20223;-76
2021/05/18 17:24:46;;;;;;;2.00;0.80;;;;;;;;;;4950213;29;20232;-76
2021/05/18 17:27:13;;;;;;;2.50;0.73;;;;;;;;;;4942289;29;20369;-76
2021/05/18 17:29:39;;;;;;;2.87;0.60;;;;;;;;;;4946103;29;20286;-77
2021/05/18 17:32:10;;;;;;;1.50;0.80;;;;;;;;;;4945809;29;20680;-76
2021/05/18 17:34:37;;;;;;;1.27;0.63;;;;;;;;;;4946320;29;20230;-77
2021/05/18 17:37:04;;;;;;;2.03;0.70;;;;;;;;;;4946014;29;20235;-77
2021/05/18 17:39:31;;;;;;;5.33;0.90;;;;;;;;;;4937153;29;20646;-76
2021/05/18 17:41:58;;;;;;;2.93;0.77;;;;;;;;;;4939935;29;20668;-76
2021/05/18 17:44:27;;;;;;;2.83;1.03;;;;;;;;;;4946518;29;20290;-77
2021/05/18 17:46:54;;;;;;;2.40;0.60;;;;;;;;;;4942130;29;20210;-76
2021/05/18 17:49:22;;;;;;;1.97;0.70;;;;;;;;;;4953460;29;20266;-77
2021/05/18 17:51:49;;;;;;;1.40;0.80;;;;;;;;;;4942047;29;20203;-77
2021/05/18 17:54:16;;;;;;;2.70;0.80;;;;;;;;;;4954291;29;20243;-76
2021/05/18 17:56:43;;;;;;;5.30;1.50;;;;;;;;;;4945145;29;20210;-76
2021/05/18 17:59:10;;;;;;;3.07;1.37;;;;;;;;;;4953204;29;20740;-77
2021/05/18 18:01:38;;;;;;;1.83;0.80;;;;;;;;;;4946929;29;20307;-75
2021/05/18 18:04:05;;;;;;;2.03;1.00;;;;;;;;;;4951002;29;20625;-76
2021/05/18 18:06:33;;;;;;;2.23;0.77;;;;;;;;;;4943380;28;20699;-78
2021/05/18 18:09:00;;;;;;;3.77;0.80;;;;;;;;;;4948871;29;20303;-74
2021/05/18 18:11:27;;;;;;;2.57;0.60;;;;;;;;;;4943612;29;20641;-77
2021/05/18 18:13:54;;;;;;;1.73;0.70;;;;;;;;;;4946370;29;20235;-76
2021/05/18 18:16:21;;;;;;;2.93;0.83;;;;;;;;;;4942153;29;20290;-76
2021/05/18 18:18:49;;;;;;;1.87;0.63;;;;;;;;;;4944111;29;20837;-77
2021/05/18 18:21:17;;;;;;;3.90;0.90;;;;;;;;;;4945062;29;20226;-77
2021/05/18 18:23:45;;;;;;;3.97;1.20;;;;;;;;;;4941186;29;20302;-76
2021/05/18 18:26:13;;;;;;;2.90;1.20;;;;;;;;;;4944051;28;20606;-78
2021/05/18 18:28:40;;;;;;;0.93;0.67;;;;;;;;;;4942772;29;20262;-77
2021/05/18 18:31:06;;;;;;;2.33;0.90;;;;;;;;;;4948611;29;20191;-75
2021/05/18 18:33:33;;;;;;;2.63;0.90;;;;;;;;;;4950975;29;20309;-76
2021/05/18 18:36:00;;;;;;;3.07;1.00;;;;;;;;;;4943350;29;20298;-77
2021/05/18 18:38:27;;;;;;;2.60;1.00;;;;;;;;;;4937526;29;20291;-77
2021/05/18 18:40:55;;;;;;;2.10;1.23;;;;;;;;;;4939522;29;20678;-77
2021/05/18 18:43:22;;;;;;;4.00;1.33;;;;;;;;;;4946858;29;20295;-77
2021/05/18 18:45:48;;;;;;;3.53;1.27;;;;;;;;;;4942005;29;20298;-77
2021/05/18 18:48:16;;;;;;;3.40;1.13;;;;;;;;;;4938956;29;20578;-77
2021/05/18 18:50:49;;;;;;;3.77;1.53;;;;;;;;;;4945292;29;20720;-77
2021/05/18 18:53:29;;;;;;;3.63;1.70;;;;;;;;;;4944423;29;20199;-77
2021/05/18 18:55:57;;;;;;;4.80;1.50;;;;;;;;;;4938762;29;20210;-76
2021/05/18 18:58:24;;;;;;;2.93;1.23;;;;;;;;;;4949150;29;20290;-75
2021/05/18 19:00:51;;;;;;;1.93;1.30;;;;;;;;;;4945337;29;20290;-77
2021/05/18 19:03:22;;;;;;;3.77;1.50;;;;;;;;;;4946982;29;20236;-75
2021/05/18 19:05:57;;;;;;;3.00;1.60;;;;;;;;;;4941462;29;20204;-76